Time;durP1;ratioP1;P1;durP2;ratioP2;P2;SDS_P1;SDS_P2;PMS_P1;PMS_P2;Temp;Humidity;BMP_temperature;BMP_pressure;BME280_temperature;BME280_humidity;BME280_pressure;Samples;Min_cycle;Max_cycle;Signal;HPM_P1;HPM_P2
2023/01/21 00:00:01;;;;;;;37.40;22.98;;;;;;;;;;5074543;28;20289;-66
2023/01/21 00:02:28;;;;;;;44.33;23.90;;;;;;;;;;5074924;28;20225;-66
2023/01/21 00:04:55;;;;;;;38.67;23.83;;;;;;;;;;5074868;28;20194;-66
2023/01/21 00:07:24;;;;;;;42.08;23.77;;;;;;;;;;5074829;28;20195;-67
2023/01/21 00:09:51;;;;;;;42.25;24.92;;;;;;;;;;5074348;28;20226;-66
2023/01/21 00:12:19;;;;;;;48.15;25.63;;;;;;;;;;5074475;28;20230;-66
2023/01/21 00:14:47;;;;;;;38.10;22.50;;;;;;;;;;5074241;28;20705;-66
2023/01/21 00:17:14;;;;;;;41.72;22.95;;;;;;;;;;5074312;28;20198;-66
2023/01/21 00:19:42;;;;;;;42.05;23.90;;;;;;;;;;5074113;28;20190;-66
2023/01/21 00:22:09;;;;;;;42.20;25.23;;;;;;;;;;5074528;28;20194;-66
2023/01/21 00:24:36;;;;;;;40.70;25.73;;;;;;;;;;5074359;28;20285;-66
2023/01/21 00:27:03;;;;;;;47.00;23.75;;;;;;;;;;5074127;28;20198;-66
2023/01/21 00:29:30;;;;;;;48.22;26.13;;;;;;;;;;5074002;28;20195;-66
2023/01/21 00:31:59;;;;;;;48.10;25.40;;;;;;;;;;5074338;28;20190;-66
2023/01/21 00:34:26;;;;;;;43.90;23.27;;;;;;;;;;5073809;28;20230;-66
2023/01/21 00:36:53;;;;;;;50.67;25.10;;;;;;;;;;5073840;28;20200;-66
2023/01/21 00:39:20;;;;;;;53.92;26.52;;;;;;;;;;5073786;28;20204;-66
2023/01/21 00:41:48;;;;;;;44.28;25.42;;;;;;;;;;5074416;28;20204;-66
2023/01/21 00:44:15;;;;;;;41.85;24.83;;;;;;;;;;5074058;28;20198;-66
2023/01/21 00:46:42;;;;;;;43.08;24.70;;;;;;;;;;5074102;28;20714;-66
2023/01/21 00:49:11;;;;;;;44.95;27.65;;;;;;;;;;5073938;28;20195;-66
2023/01/21 00:51:38;;;;;;;46.67;24.17;;;;;;;;;;5073865;28;20650;-66
2023/01/21 00:54:05;;;;;;;59.55;26.40;;;;;;;;;;5073450;28;20765;-66
2023/01/21 00:56:32;;;;;;;44.80;25.38;;;;;;;;;;5073898;28;20190;-66
2023/01/21 00:58:59;;;;;;;51.75;27.63;;;;;;;;;;5073459;28;20200;-67
2023/01/21 01:01:29;;;;;;;49.63;28.42;;;;;;;;;;5073556;28;20750;-66
2023/01/21 01:03:56;;;;;;;47.10;26.10;;;;;;;;;;5073979;28;20252;-66
2023/01/21 01:06:24;;;;;;;52.63;27.63;;;;;;;;;;5073699;28;20293;-66
2023/01/21 01:08:56;;;;;;;53.28;28.83;;;;;;;;;;5073385;28;20648;-66
2023/01/21 01:11:24;;;;;;;51.72;27.17;;;;;;;;;;5073547;28;20224;-66
2023/01/21 01:13:51;;;;;;;57.97;26.85;;;;;;;;;;5073730;28;20214;-66
2023/01/21 01:16:19;;;;;;;52.20;25.48;;;;;;;;;;5073544;28;20257;-66
2023/01/21 01:18:46;;;;;;;57.38;26.40;;;;;;;;;;5073748;28;20198;-66
2023/01/21 01:21:14;;;;;;;55.00;27.92;;;;;;;;;;5073148;28;20195;-66
2023/01/21 01:23:43;;;;;;;45.72;26.90;;;;;;;;;;5073303;28;20570;-66
2023/01/21 01:26:11;;;;;;;57.15;27.83;;;;;;;;;;5073570;28;20194;-67
2023/01/21 01:28:38;;;;;;;48.13;26.45;;;;;;;;;;5073813;28;20194;-66
2023/01/21 01:31:06;;;;;;;50.88;26.77;;;;;;;;;;5073350;28;20287;-66
2023/01/21 01:33:34;;;;;;;49.65;26.65;;;;;;;;;;5073077;28;20217;-66
2023/01/21 01:36:02;;;;;;;56.70;28.02;;;;;;;;;;5073245;28;20209;-66
2023/01/21 01:38:29;;;;;;;59.33;29.80;;;;;;;;;;5073410;28;20191;-66
2023/01/21 01:40:58;;;;;;;50.85;28.67;;;;;;;;;;5073569;28;20190;-66
2023/01/21 01:43:26;;;;;;;53.42;28.08;;;;;;;;;;5073316;28;20551;-66
2023/01/21 01:45:53;;;;;;;53.35;29.30;;;;;;;;;;5073194;28;20225;-66
2023/01/21 01:48:23;;;;;;;58.47;32.55;;;;;;;;;;5073554;28;20669;-66
2023/01/21 01:50:50;;;;;;;63.70;29.40;;;;;;;;;;5077104;28;20192;-66
2023/01/21 01:53:19;;;;;;;63.50;30.60;;;;;;;;;;5077049;28;20194;-67
2023/01/21 01:55:47;;;;;;;67.88;30.52;;;;;;;;;;5077228;28;20208;-66
2023/01/21 01:58:17;;;;;;;59.17;30.33;;;;;;;;;;5077323;28;20196;-66
2023/01/21 02:00:45;;;;;;;52.85;26.90;;;;;;;;;;5076826;28;20194;-66
2023/01/21 02:05:57;;;;;;;55.58;28.90;;;;;;;;;;5077008;28;20287;-66
2023/01/21 02:08:24;;;;;;;59.67;27.67;;;;;;;;;;5077345;28;20195;-66
2023/01/21 02:10:55;;;;;;;54.30;30.10;;;;;;;;;;5076953;28;20194;-67
2023/01/21 02:13:26;;;;;;;55.45;29.65;;;;;;;;;;5077057;28;20592;-67
2023/01/21 02:15:59;;;;;;;59.35;30.17;;;;;;;;;;5077341;28;20265;-66
2023/01/21 02:18:30;;;;;;;51.70;28.38;;;;;;;;;;5076696;28;20187;-66
2023/01/21 02:21:09;;;;;;;57.80;28.85;;;;;;;;;;5076574;28;20273;-66
2023/01/21 02:23:45;;;;;;;57.35;28.60;;;;;;;;;;5076905;28;20189;-66
2023/01/21 02:26:27;;;;;;;53.17;29.50;;;;;;;;;;5076777;28;20194;-66
2023/01/21 02:29:10;;;;;;;60.83;28.30;;;;;;;;;;5076816;28;20183;-66
2023/01/21 02:31:51;;;;;;;61.38;30.45;;;;;;;;;;5076686;28;20209;-66
2023/01/21 02:34:24;;;;;;;60.42;29.02;;;;;;;;;;5076657;28;20202;-66
2023/01/21 02:37:06;;;;;;;60.55;28.67;;;;;;;;;;5076218;28;20198;-66
2023/01/21 02:39:41;;;;;;;70.30;27.48;;;;;;;;;;5074091;28;20198;-67
2023/01/21 02:42:12;;;;;;;66.38;29.30;;;;;;;;;;5076658;28;20205;-67
2023/01/21 02:44:40;;;;;;;62.95;31.30;;;;;;;;;;5076153;28;20197;-67
2023/01/21 02:47:12;;;;;;;67.38;30.15;;;;;;;;;;5076402;28;20560;-67
2023/01/21 02:49:43;;;;;;;63.72;29.92;;;;;;;;;;5076453;28;20187;-66
2023/01/21 02:52:17;;;;;;;67.93;31.38;;;;;;;;;;5075859;28;20293;-66
2023/01/21 02:55:02;;;;;;;60.60;28.60;;;;;;;;;;5076525;28;20232;-66
2023/01/21 02:57:37;;;;;;;76.82;30.30;;;;;;;;;;5076182;28;20191;-67
2023/01/21 03:00:07;;;;;;;67.43;31.30;;;;;;;;;;5074892;28;20187;-66
2023/01/21 03:02:48;;;;;;;69.50;30.98;;;;;;;;;;5075694;28;20671;-66
2023/01/21 03:05:20;;;;;;;61.53;28.88;;;;;;;;;;5075812;28;20191;-66
2023/01/21 03:07:48;;;;;;;64.40;33.20;;;;;;;;;;5076012;28;20245;-66
2023/01/21 03:10:19;;;;;;;74.53;32.13;;;;;;;;;;5075886;28;20190;-66
2023/01/21 03:12:49;;;;;;;62.03;29.33;;;;;;;;;;5075921;28;20226;-66
2023/01/21 03:18:06;;;;;;;61.38;29.13;;;;;;;;;;5075626;28;20255;-67
2023/01/21 03:20:38;;;;;;;64.93;33.15;;;;;;;;;;5076210;28;20542;-66
2023/01/21 03:23:07;;;;;;;77.68;32.42;;;;;;;;;;5075723;28;20184;-66
2023/01/21 03:25:35;;;;;;;79.05;32.28;;;;;;;;;;5075660;28;20202;-66
2023/01/21 03:28:05;;;;;;;76.60;31.92;;;;;;;;;;5075229;28;20206;-66
2023/01/21 03:30:34;;;;;;;60.00;29.67;;;;;;;;;;5075852;28;20257;-66
2023/01/21 03:33:02;;;;;;;68.60;32.33;;;;;;;;;;5075180;28;20194;-66
2023/01/21 03:35:32;;;;;;;76.03;33.20;;;;;;;;;;5075926;28;20308;-66
2023/01/21 03:38:03;;;;;;;68.10;31.75;;;;;;;;;;5075047;28;20194;-66
2023/01/21 03:40:31;;;;;;;64.03;30.80;;;;;;;;;;5075259;28;20288;-66
2023/01/21 03:42:58;;;;;;;63.42;31.63;;;;;;;;;;5075332;28;20190;-66
2023/01/21 03:45:32;;;;;;;76.22;31.88;;;;;;;;;;5075685;28;20614;-66
2023/01/21 03:48:01;;;;;;;66.35;30.00;;;;;;;;;;5075351;28;20183;-66
2023/01/21 03:50:30;;;;;;;70.95;32.50;;;;;;;;;;5075298;28;20191;-67
2023/01/21 03:52:57;;;;;;;67.78;33.65;;;;;;;;;;5075174;28;20194;-66
2023/01/21 03:55:26;;;;;;;63.95;32.50;;;;;;;;;;5074731;28;20730;-66
2023/01/21 03:57:53;;;;;;;65.68;31.30;;;;;;;;;;5074655;28;20206;-66
2023/01/21 04:00:21;;;;;;;65.90;31.10;;;;;;;;;;5074951;28;20194;-66
2023/01/21 04:02:48;;;;;;;58.28;29.40;;;;;;;;;;5074840;28;20247;-66
2023/01/21 04:05:15;;;;;;;71.55;30.85;;;;;;;;;;5074546;28;20203;-66
2023/01/21 04:07:42;;;;;;;62.10;30.15;;;;;;;;;;5074747;28;20547;-66
2023/01/21 04:10:10;;;;;;;70.90;33.78;;;;;;;;;;5075039;28;20194;-67
2023/01/21 04:12:39;;;;;;;74.63;30.38;;;;;;;;;;5074368;28;20226;-66
2023/01/21 04:15:07;;;;;;;77.65;30.90;;;;;;;;;;5074616;28;20251;-66
2023/01/21 04:17:34;;;;;;;70.50;28.17;;;;;;;;;;5074993;28;20552;-67
2023/01/21 04:20:01;;;;;;;68.47;33.63;;;;;;;;;;5074582;28;20199;-66
2023/01/21 04:22:28;;;;;;;77.00;32.35;;;;;;;;;;5074523;28;20194;-67
2023/01/21 04:24:55;;;;;;;71.82;29.70;;;;;;;;;;5074878;28;20208;-66
2023/01/21 04:27:23;;;;;;;73.68;31.42;;;;;;;;;;5074156;28;20198;-66
2023/01/21 04:29:51;;;;;;;64.72;28.92;;;;;;;;;;5074077;28;20197;-66
2023/01/21 04:32:18;;;;;;;64.82;29.17;;;;;;;;;;5073956;28;20205;-66
2023/01/21 04:34:45;;;;;;;68.18;29.77;;;;;;;;;;5073948;28;20218;-66
2023/01/21 04:37:13;;;;;;;71.07;30.50;;;;;;;;;;5073861;28;20205;-66
2023/01/21 04:39:40;;;;;;;68.53;32.30;;;;;;;;;;5073921;28;20199;-66
2023/01/21 04:42:07;;;;;;;68.88;33.15;;;;;;;;;;5073629;28;20206;-67
2023/01/21 04:44:34;;;;;;;69.07;32.30;;;;;;;;;;5074538;28;20205;-66
2023/01/21 04:47:03;;;;;;;61.42;29.63;;;;;;;;;;5073669;28;20205;-66
2023/01/21 04:49:30;;;;;;;61.15;30.25;;;;;;;;;;5074155;28;20198;-66
2023/01/21 04:51:57;;;;;;;56.13;27.50;;;;;;;;;;5073899;28;20201;-66
2023/01/21 04:54:24;;;;;;;67.80;28.80;;;;;;;;;;5074165;28;20190;-66
2023/01/21 04:56:51;;;;;;;62.97;31.73;;;;;;;;;;5074358;28;20197;-66
2023/01/21 04:59:18;;;;;;;68.75;31.33;;;;;;;;;;5073490;28;20194;-66
2023/01/21 05:01:46;;;;;;;71.10;32.47;;;;;;;;;;5073826;28;20557;-66
2023/01/21 05:04:14;;;;;;;70.93;30.75;;;;;;;;;;5073824;28;20285;-66
2023/01/21 05:06:41;;;;;;;65.40;31.25;;;;;;;;;;5073498;28;20211;-66
2023/01/21 05:09:09;;;;;;;65.18;30.52;;;;;;;;;;5073720;28;20554;-67
2023/01/21 05:11:36;;;;;;;75.18;33.38;;;;;;;;;;5073741;28;20222;-67
2023/01/21 05:14:03;;;;;;;72.05;30.45;;;;;;;;;;5073608;28;20284;-69
2023/01/21 05:16:30;;;;;;;60.25;29.98;;;;;;;;;;5073729;28;20218;-66
2023/01/21 05:18:57;;;;;;;71.28;32.20;;;;;;;;;;5073688;28;20191;-67
2023/01/21 05:21:26;;;;;;;66.80;29.25;;;;;;;;;;5073617;28;20205;-67
2023/01/21 05:23:53;;;;;;;61.78;28.55;;;;;;;;;;5071987;28;20194;-67
2023/01/21 05:26:20;;;;;;;75.20;32.50;;;;;;;;;;5072485;28;20631;-66
2023/01/21 05:28:47;;;;;;;73.35;31.15;;;;;;;;;;5072158;28;20206;-67
2023/01/21 05:31:15;;;;;;;68.65;31.58;;;;;;;;;;5071430;28;20592;-68
2023/01/21 05:33:44;;;;;;;68.18;32.60;;;;;;;;;;5071622;28;20560;-66
2023/01/21 05:36:12;;;;;;;65.90;31.20;;;;;;;;;;5071298;28;20213;-67
2023/01/21 05:38:40;;;;;;;89.68;35.38;;;;;;;;;;5071969;28;20199;-67
2023/01/21 05:41:08;;;;;;;78.85;31.52;;;;;;;;;;5072069;28;20542;-67
2023/01/21 05:43:35;;;;;;;84.05;33.20;;;;;;;;;;5071628;28;20194;-67
2023/01/21 05:46:02;;;;;;;80.32;32.13;;;;;;;;;;5073421;28;20194;-67
2023/01/21 05:48:30;;;;;;;67.22;31.23;;;;;;;;;;5072107;28;20190;-67
2023/01/21 05:50:58;;;;;;;70.10;31.27;;;;;;;;;;5072448;28;20293;-67
2023/01/21 05:53:25;;;;;;;66.18;29.75;;;;;;;;;;5072201;28;20202;-67
2023/01/21 05:55:54;;;;;;;81.63;32.25;;;;;;;;;;5072739;28;20297;-67
2023/01/21 05:58:22;;;;;;;75.63;30.27;;;;;;;;;;5072130;28;20200;-67
2023/01/21 06:00:49;;;;;;;71.05;29.52;;;;;;;;;;5072019;28;20194;-68
2023/01/21 06:03:17;;;;;;;73.03;31.55;;;;;;;;;;5072349;28;20213;-67
2023/01/21 06:05:45;;;;;;;83.68;33.25;;;;;;;;;;5072190;28;20208;-67
2023/01/21 06:08:13;;;;;;;81.60;31.10;;;;;;;;;;5071784;28;20190;-66
2023/01/21 06:10:40;;;;;;;76.70;31.27;;;;;;;;;;5072069;28;20196;-67
2023/01/21 06:13:09;;;;;;;75.05;32.10;;;;;;;;;;5072042;28;20194;-67
2023/01/21 06:15:36;;;;;;;77.40;29.33;;;;;;;;;;5072307;28;20578;-66
2023/01/21 06:18:03;;;;;;;79.97;31.40;;;;;;;;;;5072688;28;20202;-66
2023/01/21 06:20:30;;;;;;;78.78;32.75;;;;;;;;;;5071861;28;20201;-66
2023/01/21 06:22:58;;;;;;;71.55;30.50;;;;;;;;;;5072295;28;20248;-66
2023/01/21 06:25:25;;;;;;;74.47;32.03;;;;;;;;;;5072174;28;20206;-66
2023/01/21 06:27:54;;;;;;;77.57;31.15;;;;;;;;;;5072101;28;20194;-66
2023/01/21 06:30:23;;;;;;;70.38;29.05;;;;;;;;;;5071854;28;20206;-66
2023/01/21 06:32:50;;;;;;;62.88;34.90;;;;;;;;;;5071880;28;20202;-67
2023/01/21 06:35:18;;;;;;;68.60;29.45;;;;;;;;;;5073993;28;20214;-66
2023/01/21 06:37:45;;;;;;;69.93;30.42;;;;;;;;;;5075559;28;20297;-66
2023/01/21 06:40:13;;;;;;;70.88;30.80;;;;;;;;;;5075654;28;20193;-66
2023/01/21 06:42:40;;;;;;;72.70;30.42;;;;;;;;;;5075583;28;20198;-66
2023/01/21 06:45:08;;;;;;;68.22;28.70;;;;;;;;;;5075656;28;20193;-66
2023/01/21 06:47:37;;;;;;;66.22;29.50;;;;;;;;;;5076021;28;20255;-67
2023/01/21 06:50:04;;;;;;;80.35;31.85;;;;;;;;;;5074864;28;20198;-66
2023/01/21 06:52:31;;;;;;;74.30;34.05;;;;;;;;;;5075434;28;20285;-66
2023/01/21 06:54:58;;;;;;;70.35;31.80;;;;;;;;;;5075758;28;20221;-67
2023/01/21 06:57:26;;;;;;;68.63;31.75;;;;;;;;;;5075598;28;20198;-66
2023/01/21 06:59:53;;;;;;;71.18;29.92;;;;;;;;;;5075392;28;20201;-66
2023/01/21 07:02:20;;;;;;;82.38;32.38;;;;;;;;;;5074683;28;20682;-66
2023/01/21 07:04:50;;;;;;;75.57;32.17;;;;;;;;;;5075023;28;20655;-66
2023/01/21 07:07:17;;;;;;;74.22;32.60;;;;;;;;;;5075458;28;20609;-66
2023/01/21 07:09:44;;;;;;;69.68;31.27;;;;;;;;;;5074491;28;20198;-66
2023/01/21 07:12:12;;;;;;;75.60;33.42;;;;;;;;;;5074768;28;20687;-66
2023/01/21 07:14:39;;;;;;;75.82;33.60;;;;;;;;;;5075125;28;20252;-66
2023/01/21 07:17:06;;;;;;;79.25;33.28;;;;;;;;;;5075033;28;20376;-66
2023/01/21 07:19:33;;;;;;;85.43;33.00;;;;;;;;;;5075322;28;20197;-66
2023/01/21 07:22:02;;;;;;;90.10;36.38;;;;;;;;;;5074766;28;20196;-66
2023/01/21 07:24:29;;;;;;;74.07;31.90;;;;;;;;;;5074595;28;20190;-66
2023/01/21 07:26:56;;;;;;;90.97;34.78;;;;;;;;;;5074979;28;20207;-66
2023/01/21 07:29:24;;;;;;;81.35;34.22;;;;;;;;;;5074288;28;20612;-67
2023/01/21 07:31:51;;;;;;;85.60;34.50;;;;;;;;;;5074857;28;20205;-66
2023/01/21 07:34:18;;;;;;;78.97;33.53;;;;;;;;;;5074786;28;20201;-66
2023/01/21 07:36:46;;;;;;;82.97;36.03;;;;;;;;;;5074524;28;20222;-66
2023/01/21 07:39:14;;;;;;;71.50;31.52;;;;;;;;;;5074434;28;20694;-66
2023/01/21 07:41:41;;;;;;;82.10;34.10;;;;;;;;;;5074558;28;20198;-66
2023/01/21 07:44:09;;;;;;;83.05;36.42;;;;;;;;;;5074779;28;20201;-66
2023/01/21 07:46:36;;;;;;;82.10;29.90;;;;;;;;;;5073244;28;20301;-66
2023/01/21 07:49:03;;;;;;;80.85;33.88;;;;;;;;;;5074333;28;20651;-66
2023/01/21 07:51:31;;;;;;;75.10;33.25;;;;;;;;;;5074498;28;20198;-66
2023/01/21 07:53:58;;;;;;;86.25;33.30;;;;;;;;;;5074425;28;20200;-67
2023/01/21 07:56:26;;;;;;;73.78;32.60;;;;;;;;;;5073904;28;20217;-66
2023/01/21 07:58:53;;;;;;;78.25;31.92;;;;;;;;;;5074882;28;20194;-66
2023/01/21 08:01:21;;;;;;;73.63;35.47;;;;;;;;;;5073912;28;20200;-66
2023/01/21 08:03:48;;;;;;;84.85;38.28;;;;;;;;;;5074021;28;20202;-66
2023/01/21 08:06:15;;;;;;;68.60;32.47;;;;;;;;;;5074062;28;20284;-66
2023/01/21 08:08:42;;;;;;;83.22;33.75;;;;;;;;;;5074128;28;20194;-66
2023/01/21 08:11:09;;;;;;;81.40;33.50;;;;;;;;;;5073764;28;20222;-66
2023/01/21 08:13:38;;;;;;;77.53;34.75;;;;;;;;;;5074070;28;20198;-66
2023/01/21 08:16:06;;;;;;;87.30;34.25;;;;;;;;;;5073729;28;20221;-66
2023/01/21 08:18:33;;;;;;;77.97;34.30;;;;;;;;;;5073609;28;20678;-66
2023/01/21 08:21:00;;;;;;;82.38;35.55;;;;;;;;;;5073630;28;20211;-66
2023/01/21 08:23:27;;;;;;;78.10;35.38;;;;;;;;;;5073918;28;20232;-66
2023/01/21 08:25:55;;;;;;;76.15;33.30;;;;;;;;;;5073621;28;20285;-66
2023/01/21 08:28:22;;;;;;;81.57;34.22;;;;;;;;;;5073845;28;20212;-66
2023/01/21 08:30:50;;;;;;;75.20;32.13;;;;;;;;;;5073545;28;20289;-66
2023/01/21 08:33:18;;;;;;;68.35;35.17;;;;;;;;;;5073594;28;20190;-66
2023/01/21 08:35:45;;;;;;;64.43;29.15;;;;;;;;;;5073469;28;20204;-66
2023/01/21 08:38:12;;;;;;;76.40;34.22;;;;;;;;;;5073259;28;20195;-67
2023/01/21 08:40:39;;;;;;;70.00;31.90;;;;;;;;;;5073303;28;20251;-66
2023/01/21 08:43:07;;;;;;;75.47;33.70;;;;;;;;;;5073546;28;20198;-66
2023/01/21 08:45:35;;;;;;;65.88;32.00;;;;;;;;;;5073361;28;20289;-66
2023/01/21 08:48:04;;;;;;;71.72;29.27;;;;;;;;;;5073426;28;20198;-66
2023/01/21 08:50:31;;;;;;;66.72;31.92;;;;;;;;;;5073206;28;20202;-68
2023/01/21 08:52:58;;;;;;;75.65;30.00;;;;;;;;;;5073613;28;20194;-70
2023/01/21 08:55:25;;;;;;;78.07;32.03;;;;;;;;;;5073278;28;20194;-66
2023/01/21 08:57:53;;;;;;;74.82;29.67;;;;;;;;;;5072921;28;20268;-66
2023/01/21 09:00:21;;;;;;;57.95;26.80;;;;;;;;;;5073338;28;20191;-66
2023/01/21 09:02:48;;;;;;;52.75;27.67;;;;;;;;;;5072808;28;20302;-66
2023/01/21 09:05:16;;;;;;;53.58;29.05;;;;;;;;;;5073539;28;20190;-66
2023/01/21 09:07:44;;;;;;;59.05;29.08;;;;;;;;;;5073055;28;20251;-66
2023/01/21 09:10:11;;;;;;;50.60;24.90;;;;;;;;;;5072710;28;20194;-67
2023/01/21 09:12:40;;;;;;;57.38;26.15;;;;;;;;;;5073365;28;20233;-67
2023/01/21 09:15:08;;;;;;;57.72;25.88;;;;;;;;;;5072945;28;20285;-67
2023/01/21 09:17:37;;;;;;;48.90;26.33;;;;;;;;;;5071816;28;20555;-67
2023/01/21 09:20:04;;;;;;;48.38;26.48;;;;;;;;;;5072072;28;20222;-67
2023/01/21 09:22:33;;;;;;;51.80;24.80;;;;;;;;;;5072084;28;20195;-67
2023/01/21 09:25:08;;;;;;;52.75;26.50;;;;;;;;;;5072498;28;20286;-67
2023/01/21 09:27:36;;;;;;;55.95;25.05;;;;;;;;;;5072450;28;20288;-67
2023/01/21 09:30:03;;;;;;;44.40;22.85;;;;;;;;;;5073380;28;20194;-67
2023/01/21 09:32:31;;;;;;;42.88;23.85;;;;;;;;;;5072829;28;20221;-67
2023/01/21 09:34:58;;;;;;;46.63;24.33;;;;;;;;;;5073301;28;20209;-68
2023/01/21 09:37:25;;;;;;;47.85;23.00;;;;;;;;;;5072926;28;20215;-67
2023/01/21 09:39:53;;;;;;;39.70;20.55;;;;;;;;;;5072932;28;20190;-66
2023/01/21 09:42:21;;;;;;;42.05;22.63;;;;;;;;;;5073181;28;20246;-67
2023/01/21 09:44:51;;;;;;;46.47;23.88;;;;;;;;;;5072511;28;20190;-67
2023/01/21 09:47:22;;;;;;;51.75;22.80;;;;;;;;;;5071745;28;20191;-68
2023/01/21 09:49:51;;;;;;;43.85;22.73;;;;;;;;;;5072785;28;20197;-67
2023/01/21 09:52:23;;;;;;;42.03;22.55;;;;;;;;;;5072329;28;20190;-67
2023/01/21 09:54:50;;;;;;;44.78;22.23;;;;;;;;;;5072373;28;20275;-67
2023/01/21 09:57:33;;;;;;;50.90;28.20;;;;;;;;;;5072448;28;20230;-66
2023/01/21 10:00:07;;;;;;;44.92;22.92;;;;;;;;;;5060339;28;20190;-66
2023/01/21 10:02:39;;;;;;;44.60;22.23;;;;;;;;;;5072195;28;20273;-67
2023/01/21 10:05:17;;;;;;;44.65;24.80;;;;;;;;;;5072360;28;20183;-66
2023/01/21 10:07:46;;;;;;;41.38;22.33;;;;;;;;;;5071713;28;20186;-66
2023/01/21 10:10:18;;;;;;;47.72;25.48;;;;;;;;;;5074171;28;20202;-67
2023/01/21 10:13:00;;;;;;;41.60;22.17;;;;;;;;;;5076607;28;20248;-66
2023/01/21 10:15:47;;;;;;;50.55;23.02;;;;;;;;;;5076625;28;20188;-66
2023/01/21 10:18:18;;;;;;;46.92;25.55;;;;;;;;;;5056344;28;20556;-66
2023/01/21 10:20:49;;;;;;;39.75;24.30;;;;;;;;;;5056061;28;20194;-66
2023/01/21 10:23:19;;;;;;;40.15;23.95;;;;;;;;;;5056254;28;20550;-66
2023/01/21 10:25:49;;;;;;;44.35;23.58;;;;;;;;;;5055884;28;20587;-66
2023/01/21 10:28:19;;;;;;;42.17;22.25;;;;;;;;;;5055310;28;20661;-66
2023/01/21 10:30:50;;;;;;;39.78;23.08;;;;;;;;;;5055906;28;20417;-66
2023/01/21 10:33:19;;;;;;;40.38;23.65;;;;;;;;;;5055900;28;20216;-66
2023/01/21 10:36:00;;;;;;;44.50;23.98;;;;;;;;;;5055638;28;20205;-67
2023/01/21 10:38:30;;;;;;;39.20;23.25;;;;;;;;;;5055991;28;20216;-67
2023/01/21 10:40:59;;;;;;;41.03;21.15;;;;;;;;;;5056010;28;20629;-66
2023/01/21 10:43:33;;;;;;;34.10;19.75;;;;;;;;;;5055767;28;20207;-66
2023/01/21 10:46:07;;;;;;;52.33;21.45;;;;;;;;;;5058232;28;20190;-66
2023/01/21 10:48:38;;;;;;;36.45;20.13;;;;;;;;;;5075147;28;20192;-67
2023/01/21 10:51:09;;;;;;;32.22;20.63;;;;;;;;;;5075460;28;20199;-66
2023/01/21 10:53:40;;;;;;;38.17;20.10;;;;;;;;;;5075442;28;20259;-66
2023/01/21 10:56:18;;;;;;;39.50;20.58;;;;;;;;;;5075804;28;20199;-66
2023/01/21 10:58:47;;;;;;;33.67;19.85;;;;;;;;;;5075592;28;20203;-65
2023/01/21 11:01:19;;;;;;;36.42;20.85;;;;;;;;;;5075229;28;20195;-65
2023/01/21 11:03:47;;;;;;;36.75;21.27;;;;;;;;;;5075601;28;20295;-66
2023/01/21 11:06:17;;;;;;;39.80;23.10;;;;;;;;;;5074705;28;20618;-66
2023/01/21 11:08:45;;;;;;;37.80;21.92;;;;;;;;;;5075139;28;20209;-65
2023/01/21 11:11:13;;;;;;;37.22;21.05;;;;;;;;;;5074975;28;20238;-66
2023/01/21 11:13:40;;;;;;;38.33;23.52;;;;;;;;;;5075224;28;20206;-65
2023/01/21 11:16:08;;;;;;;36.88;22.83;;;;;;;;;;5075217;28;20195;-66
2023/01/21 11:18:38;;;;;;;41.75;21.60;;;;;;;;;;5075048;28;20312;-66
2023/01/21 11:21:15;;;;;;;41.40;23.00;;;;;;;;;;5073817;28;20281;-66
2023/01/21 11:23:42;;;;;;;41.72;22.95;;;;;;;;;;5074738;28;20179;-66
2023/01/21 11:26:17;;;;;;;40.92;23.05;;;;;;;;;;5074870;28;20216;-66
2023/01/21 11:28:44;;;;;;;40.00;21.45;;;;;;;;;;5074346;28;20190;-66
2023/01/21 11:31:13;;;;;;;44.38;22.95;;;;;;;;;;5074716;28;20203;-66
2023/01/21 11:33:42;;;;;;;40.95;24.10;;;;;;;;;;5074789;28;20300;-66
2023/01/21 11:36:11;;;;;;;40.15;23.88;;;;;;;;;;5075383;28;20241;-66
2023/01/21 11:38:38;;;;;;;43.45;23.50;;;;;;;;;;5074609;28;20691;-66
2023/01/21 11:41:06;;;;;;;41.45;21.85;;;;;;;;;;5074744;28;20235;-66
2023/01/21 11:43:35;;;;;;;40.38;25.50;;;;;;;;;;5074323;28;20196;-66
2023/01/21 11:46:20;;;;;;;45.28;24.15;;;;;;;;;;5074300;28;20257;-66
2023/01/21 11:48:49;;;;;;;43.50;23.33;;;;;;;;;;5074251;28;20192;-66
2023/01/21 11:51:16;;;;;;;42.60;24.27;;;;;;;;;;5074391;28;20195;-66
2023/01/21 11:53:45;;;;;;;44.42;25.98;;;;;;;;;;5074551;28;20191;-66
2023/01/21 11:56:13;;;;;;;48.75;26.77;;;;;;;;;;5074191;28;20294;-66
2023/01/21 11:58:41;;;;;;;42.55;24.52;;;;;;;;;;5074651;28;20362;-66
2023/01/21 12:01:10;;;;;;;42.78;22.08;;;;;;;;;;5074457;28;20554;-66
2023/01/21 12:03:41;;;;;;;47.75;24.50;;;;;;;;;;5073935;28;20239;-66
2023/01/21 12:06:10;;;;;;;39.53;23.85;;;;;;;;;;5074302;28;20194;-66
2023/01/21 12:08:38;;;;;;;47.42;24.85;;;;;;;;;;5074319;28;20200;-66
2023/01/21 12:11:07;;;;;;;35.88;20.02;;;;;;;;;;5073814;28;20326;-66
2023/01/21 12:13:40;;;;;;;42.42;24.20;;;;;;;;;;5074473;28;20184;-66
2023/01/21 12:16:25;;;;;;;42.78;24.20;;;;;;;;;;5074104;28;20585;-66
2023/01/21 12:19:15;;;;;;;45.30;24.25;;;;;;;;;;5074053;28;20562;-67
2023/01/21 12:21:47;;;;;;;47.65;25.95;;;;;;;;;;5074232;28;20188;-66
2023/01/21 12:24:21;;;;;;;42.70;22.70;;;;;;;;;;5074626;28;20213;-67
2023/01/21 12:26:51;;;;;;;49.53;23.95;;;;;;;;;;5074160;28;20235;-66
2023/01/21 12:29:28;;;;;;;45.92;24.52;;;;;;;;;;5073451;28;20211;-66
2023/01/21 12:31:57;;;;;;;45.20;23.95;;;;;;;;;;5073422;28;20215;-67
2023/01/21 12:34:29;;;;;;;37.97;22.45;;;;;;;;;;5073339;28;20199;-67
2023/01/21 12:37:00;;;;;;;41.13;23.50;;;;;;;;;;5073464;28;20180;-66
2023/01/21 12:39:30;;;;;;;38.78;20.77;;;;;;;;;;5073967;28;20188;-67
2023/01/21 12:42:02;;;;;;;40.40;23.13;;;;;;;;;;5073942;28;20286;-66
2023/01/21 12:44:33;;;;;;;40.30;22.83;;;;;;;;;;5073806;28;20195;-67
2023/01/21 12:47:04;;;;;;;39.45;24.38;;;;;;;;;;5073708;28;20193;-67
2023/01/21 12:49:47;;;;;;;45.60;25.05;;;;;;;;;;5073892;28;20618;-67
2023/01/21 12:52:19;;;;;;;38.20;22.40;;;;;;;;;;5073899;28;20618;-67
2023/01/21 12:54:49;;;;;;;55.38;24.92;;;;;;;;;;5073759;28;20276;-67
2023/01/21 12:57:18;;;;;;;44.22;24.30;;;;;;;;;;5074010;28;20224;-66
2023/01/21 12:59:48;;;;;;;36.28;22.83;;;;;;;;;;5073352;28;20196;-67
2023/01/21 13:02:19;;;;;;;42.95;24.13;;;;;;;;;;5073052;28;20216;-66
2023/01/21 13:04:50;;;;;;;38.75;22.35;;;;;;;;;;5073040;28;20279;-66
2023/01/21 13:07:26;;;;;;;42.55;22.83;;;;;;;;;;5073581;28;20194;-67
2023/01/21 13:09:55;;;;;;;42.80;23.88;;;;;;;;;;5072788;28;20185;-66
2023/01/21 13:12:25;;;;;;;43.25;24.52;;;;;;;;;;5072582;28;20229;-67
2023/01/21 13:14:57;;;;;;;41.25;23.05;;;;;;;;;;5073276;28;20200;-67
2023/01/21 13:17:28;;;;;;;45.42;25.27;;;;;;;;;;5073410;28;20575;-66
2023/01/21 13:19:55;;;;;;;45.03;25.48;;;;;;;;;;5073428;28;20183;-67
2023/01/21 13:22:32;;;;;;;39.80;23.23;;;;;;;;;;5072724;28;20197;-67
2023/01/21 13:25:11;;;;;;;39.08;22.05;;;;;;;;;;5073261;28;20184;-66
2023/01/21 13:27:41;;;;;;;45.40;22.45;;;;;;;;;;5073775;28;20189;-66
2023/01/21 13:30:14;;;;;;;34.03;20.90;;;;;;;;;;5073027;28;20603;-66
2023/01/21 13:32:43;;;;;;;38.65;21.33;;;;;;;;;;5073064;28;20540;-66
2023/01/21 13:35:18;;;;;;;38.72;23.33;;;;;;;;;;5072638;28;20195;-66
2023/01/21 13:37:50;;;;;;;37.58;20.65;;;;;;;;;;5073152;28;20213;-66
2023/01/21 13:40:29;;;;;;;37.47;21.95;;;;;;;;;;5073003;28;20283;-67
2023/01/21 13:43:00;;;;;;;38.88;20.63;;;;;;;;;;5072570;28;20196;-67
2023/01/21 13:45:35;;;;;;;34.90;20.25;;;;;;;;;;5071878;28;20196;-67
2023/01/21 13:48:23;;;;;;;38.80;23.33;;;;;;;;;;5073193;28;20295;-66
2023/01/21 13:51:05;;;;;;;38.97;20.23;;;;;;;;;;5067190;28;20209;-67
2023/01/21 13:53:42;;;;;;;36.50;20.27;;;;;;;;;;5071514;28;20631;-67
2023/01/21 13:56:17;;;;;;;36.75;19.73;;;;;;;;;;5072112;28;20279;-67
2023/01/21 13:58:47;;;;;;;31.55;19.67;;;;;;;;;;5071869;28;20610;-68
2023/01/21 14:01:15;;;;;;;32.50;18.83;;;;;;;;;;5072419;28;20196;-67
2023/01/21 14:03:45;;;;;;;32.65;17.58;;;;;;;;;;5072047;28;20286;-68
2023/01/21 14:06:17;;;;;;;32.25;19.02;;;;;;;;;;5072502;28;20282;-67
2023/01/21 14:08:48;;;;;;;31.02;18.30;;;;;;;;;;5072970;28;20199;-67
2023/01/21 14:11:18;;;;;;;33.85;18.95;;;;;;;;;;5072146;28;20230;-68
2023/01/21 14:14:07;;;;;;;29.13;16.88;;;;;;;;;;5072252;28;20202;-68
2023/01/21 14:16:51;;;;;;;31.90;19.65;;;;;;;;;;5072219;28;20215;-67
2023/01/21 14:19:24;;;;;;;34.03;19.50;;;;;;;;;;5072624;28;20215;-67
2023/01/21 14:22:06;;;;;;;28.13;18.30;;;;;;;;;;5072047;28;20673;-67
2023/01/21 14:24:45;;;;;;;34.35;16.45;;;;;;;;;;5071843;28;20288;-67
2023/01/21 14:27:18;;;;;;;33.97;18.58;;;;;;;;;;5072373;28;20276;-67
2023/01/21 14:29:47;;;;;;;26.73;17.52;;;;;;;;;;5072645;28;20195;-67
2023/01/21 14:32:16;;;;;;;29.23;17.33;;;;;;;;;;5072291;28;20556;-67
2023/01/21 14:34:48;;;;;;;33.40;18.02;;;;;;;;;;5072366;28;20200;-67